sensor_id;sensor_type;location;lat;lon;timestamp;temperature;humidity
18240;DHT22;9244;50.828;4.718;2023-08-21T00:01:15;18.60;99.90
18240;DHT22;9244;50.828;4.718;2023-08-21T00:03:40;18.60;99.90
18240;DHT22;9244;50.828;4.718;2023-08-21T00:06:06;18.70;99.90
18240;DHT22;9244;50.828;4.718;2023-08-21T00:08:32;18.60;99.90
18240;DHT22;9244;50.828;4.718;2023-08-21T00:10:57;18.50;99.90
18240;DHT22;9244;50.828;4.718;2023-08-21T00:13:23;18.50;99.90
18240;DHT22;9244;50.828;4.718;2023-08-21T00:15:48;18.50;99.90
18240;DHT22;9244;50.828;4.718;2023-08-21T00:18:14;18.50;99.90
18240;DHT22;9244;50.828;4.718;2023-08-21T00:20:40;18.60;99.90
18240;DHT22;9244;50.828;4.718;2023-08-21T00:23:07;18.60;99.90
18240;DHT22;9244;50.828;4.718;2023-08-21T00:25:34;18.50;99.90
18240;DHT22;9244;50.828;4.718;2023-08-21T00:28:00;18.50;99.90
18240;DHT22;9244;50.828;4.718;2023-08-21T00:30:25;18.40;99.90
18240;DHT22;9244;50.828;4.718;2023-08-21T00:32:51;18.40;99.90
18240;DHT22;9244;50.828;4.718;2023-08-21T00:35:16;18.40;99.90
18240;DHT22;9244;50.828;4.718;2023-08-21T00:37:42;18.40;99.90
18240;DHT22;9244;50.828;4.718;2023-08-21T00:40:08;18.40;99.90
18240;DHT22;9244;50.828;4.718;2023-08-21T00:42:34;18.30;99.90
18240;DHT22;9244;50.828;4.718;2023-08-21T00:44:59;18.30;99.90
18240;DHT22;9244;50.828;4.718;2023-08-21T00:47:25;18.20;99.90
18240;DHT22;9244;50.828;4.718;2023-08-21T00:49:51;18.20;99.90
18240;DHT22;9244;50.828;4.718;2023-08-21T00:52:17;18.20;99.90
18240;DHT22;9244;50.828;4.718;2023-08-21T00:54:43;18.10;99.90
18240;DHT22;9244;50.828;4.718;2023-08-21T00:57:10;18.10;99.90
18240;DHT22;9244;50.828;4.718;2023-08-21T00:59:37;18.00;99.90
18240;DHT22;9244;50.828;4.718;2023-08-21T01:02:03;18.00;99.90
18240;DHT22;9244;50.828;4.718;2023-08-21T01:04:29;18.00;99.90
18240;DHT22;9244;50.828;4.718;2023-08-21T01:06:54;18.10;99.90
18240;DHT22;9244;50.828;4.718;2023-08-21T01:12:29;18.20;99.90
18240;DHT22;9244;50.828;4.718;2023-08-21T01:15:00;18.10;99.90
18240;DHT22;9244;50.828;4.718;2023-08-21T01:17:29;18.00;99.90
18240;DHT22;9244;50.828;4.718;2023-08-21T01:19:56;17.90;99.90
18240;DHT22;9244;50.828;4.718;2023-08-21T01:22:29;17.90;99.90
18240;DHT22;9244;50.828;4.718;2023-08-21T01:25:00;17.90;99.90
18240;DHT22;9244;50.828;4.718;2023-08-21T01:27:25;17.80;99.90
18240;DHT22;9244;50.828;4.718;2023-08-21T01:29:51;17.80;99.90
18240;DHT22;9244;50.828;4.718;2023-08-21T01:32:40;17.70;99.90
18240;DHT22;9244;50.828;4.718;2023-08-21T01:35:07;17.60;99.90
18240;DHT22;9244;50.828;4.718;2023-08-21T01:37:34;17.60;99.90
18240;DHT22;9244;50.828;4.718;2023-08-21T01:40:00;17.70;99.90
18240;DHT22;9244;50.828;4.718;2023-08-21T01:42:26;17.70;99.90
18240;DHT22;9244;50.828;4.718;2023-08-21T01:44:52;17.70;99.90
18240;DHT22;9244;50.828;4.718;2023-08-21T01:47:17;17.70;99.90
18240;DHT22;9244;50.828;4.718;2023-08-21T01:49:43;17.60;99.90
18240;DHT22;9244;50.828;4.718;2023-08-21T01:52:08;17.60;99.90
18240;DHT22;9244;50.828;4.718;2023-08-21T01:54:35;17.50;99.90
18240;DHT22;9244;50.828;4.718;2023-08-21T01:57:00;17.40;99.90
18240;DHT22;9244;50.828;4.718;2023-08-21T01:59:26;17.40;99.90
18240;DHT22;9244;50.828;4.718;2023-08-21T02:01:52;17.50;99.90
18240;DHT22;9244;50.828;4.718;2023-08-21T02:04:17;17.40;99.90
18240;DHT22;9244;50.828;4.718;2023-08-21T02:06:43;17.20;99.90
18240;DHT22;9244;50.828;4.718;2023-08-21T02:09:09;17.20;99.90
18240;DHT22;9244;50.828;4.718;2023-08-21T02:11:35;17.10;99.90
18240;DHT22;9244;50.828;4.718;2023-08-21T02:14:01;17.10;99.90
18240;DHT22;9244;50.828;4.718;2023-08-21T02:16:27;17.10;99.90
18240;DHT22;9244;50.828;4.718;2023-08-21T02:18:52;17.10;99.90
18240;DHT22;9244;50.828;4.718;2023-08-21T02:21:18;17.10;99.90
18240;DHT22;9244;50.828;4.718;2023-08-21T02:23:43;17.20;99.90
18240;DHT22;9244;50.828;4.718;2023-08-21T02:26:09;17.30;99.90
18240;DHT22;9244;50.828;4.718;2023-08-21T02:28:35;17.30;99.90
18240;DHT22;9244;50.828;4.718;2023-08-21T02:31:00;17.30;99.90
18240;DHT22;9244;50.828;4.718;2023-08-21T02:33:26;17.20;99.90
18240;DHT22;9244;50.828;4.718;2023-08-21T02:35:51;17.10;99.90
18240;DHT22;9244;50.828;4.718;2023-08-21T02:38:17;17.10;99.90
18240;DHT22;9244;50.828;4.718;2023-08-21T02:40:43;16.90;99.90
18240;DHT22;9244;50.828;4.718;2023-08-21T02:43:08;16.90;99.90
18240;DHT22;9244;50.828;4.718;2023-08-21T02:45:34;16.80;99.90
18240;DHT22;9244;50.828;4.718;2023-08-21T02:47:59;16.80;99.90
18240;DHT22;9244;50.828;4.718;2023-08-21T02:50:25;16.70;99.90
18240;DHT22;9244;50.828;4.718;2023-08-21T02:52:50;16.70;99.90
18240;DHT22;9244;50.828;4.718;2023-08-21T02:55:16;16.70;99.90
18240;DHT22;9244;50.828;4.718;2023-08-21T02:57:42;16.60;99.90
18240;DHT22;9244;50.828;4.718;2023-08-21T03:00:08;16.50;99.90
18240;DHT22;9244;50.828;4.718;2023-08-21T03:02:34;16.60;99.90
18240;DHT22;9244;50.828;4.718;2023-08-21T03:04:59;16.50;99.90
18240;DHT22;9244;50.828;4.718;2023-08-21T03:07:25;16.60;99.90
18240;DHT22;9244;50.828;4.718;2023-08-21T03:09:51;16.60;99.90
18240;DHT22;9244;50.828;4.718;2023-08-21T03:12:16;16.70;99.90
18240;DHT22;9244;50.828;4.718;2023-08-21T03:14:42;16.70;99.90
18240;DHT22;9244;50.828;4.718;2023-08-21T03:17:08;16.80;99.90
18240;DHT22;9244;50.828;4.718;2023-08-21T03:19:34;16.80;99.90
18240;DHT22;9244;50.828;4.718;2023-08-21T03:21:59;16.70;99.90
18240;DHT22;9244;50.828;4.718;2023-08-21T03:24:25;16.90;99.90
18240;DHT22;9244;50.828;4.718;2023-08-21T03:26:51;16.90;99.90
18240;DHT22;9244;50.828;4.718;2023-08-21T03:29:16;16.80;99.90
18240;DHT22;9244;50.828;4.718;2023-08-21T03:31:42;16.80;99.90
18240;DHT22;9244;50.828;4.718;2023-08-21T03:34:08;16.50;99.90
18240;DHT22;9244;50.828;4.718;2023-08-21T03:36:34;16.50;99.90
18240;DHT22;9244;50.828;4.718;2023-08-21T03:39:02;16.70;99.90
18240;DHT22;9244;50.828;4.718;2023-08-21T03:41:29;16.80;99.90
18240;DHT22;9244;50.828;4.718;2023-08-21T03:43:54;16.90;99.90
18240;DHT22;9244;50.828;4.718;2023-08-21T03:46:20;16.70;99.90
18240;DHT22;9244;50.828;4.718;2023-08-21T03:48:46;16.60;99.90
18240;DHT22;9244;50.828;4.718;2023-08-21T03:51:11;16.60;99.90
18240;DHT22;9244;50.828;4.718;2023-08-21T03:53:37;16.40;99.90
18240;DHT22;9244;50.828;4.718;2023-08-21T03:56:03;16.40;99.90
18240;DHT22;9244;50.828;4.718;2023-08-21T03:58:28;16.20;99.90
18240;DHT22;9244;50.828;4.718;2023-08-21T04:00:54;16.10;99.90
18240;DHT22;9244;50.828;4.718;2023-08-21T04:03:20;16.00;99.90
18240;DHT22;9244;50.828;4.718;2023-08-21T04:05:46;16.00;99.90
18240;DHT22;9244;50.828;4.718;2023-08-21T04:08:12;16.00;99.90
18240;DHT22;9244;50.828;4.718;2023-08-21T04:10:37;16.00;99.90
18240;DHT22;9244;50.828;4.718;2023-08-21T04:13:04;15.90;99.90
18240;DHT22;9244;50.828;4.718;2023-08-21T04:15:30;15.80;99.90
18240;DHT22;9244;50.828;4.718;2023-08-21T04:17:56;15.80;99.90
18240;DHT22;9244;50.828;4.718;2023-08-21T04:20:21;15.80;99.90
18240;DHT22;9244;50.828;4.718;2023-08-21T04:22:48;15.80;99.90
18240;DHT22;9244;50.828;4.718;2023-08-21T04:25:13;15.80;99.90
18240;DHT22;9244;50.828;4.718;2023-08-21T04:27:39;15.80;99.90
18240;DHT22;9244;50.828;4.718;2023-08-21T04:30:05;15.90;99.90
18240;DHT22;9244;50.828;4.718;2023-08-21T04:32:31;15.90;99.90
18240;DHT22;9244;50.828;4.718;2023-08-21T04:34:56;15.80;99.90
18240;DHT22;9244;50.828;4.718;2023-08-21T04:37:23;15.80;99.90
18240;DHT22;9244;50.828;4.718;2023-08-21T04:39:53;15.90;99.90
18240;DHT22;9244;50.828;4.718;2023-08-21T04:42:19;15.90;99.90
18240;DHT22;9244;50.828;4.718;2023-08-21T04:44:45;15.80;99.90
18240;DHT22;9244;50.828;4.718;2023-08-21T04:47:24;16.00;99.90
18240;DHT22;9244;50.828;4.718;2023-08-21T04:49:53;16.00;99.90
18240;DHT22;9244;50.828;4.718;2023-08-21T04:52:20;16.00;99.90
18240;DHT22;9244;50.828;4.718;2023-08-21T04:54:47;15.90;99.90
18240;DHT22;9244;50.828;4.718;2023-08-21T04:57:12;15.90;99.90
18240;DHT22;9244;50.828;4.718;2023-08-21T04:59:38;16.00;99.90
18240;DHT22;9244;50.828;4.718;2023-08-21T05:02:04;16.00;99.90
18240;DHT22;9244;50.828;4.718;2023-08-21T05:04:30;16.00;99.90
18240;DHT22;9244;50.828;4.718;2023-08-21T05:06:55;15.90;99.90
18240;DHT22;9244;50.828;4.718;2023-08-21T05:09:21;15.90;99.90
18240;DHT22;9244;50.828;4.718;2023-08-21T05:11:47;15.90;99.90
18240;DHT22;9244;50.828;4.718;2023-08-21T05:14:12;15.80;99.90
18240;DHT22;9244;50.828;4.718;2023-08-21T05:16:38;15.80;99.90
18240;DHT22;9244;50.828;4.718;2023-08-21T05:19:03;15.80;99.90
18240;DHT22;9244;50.828;4.718;2023-08-21T05:21:29;15.80;99.90
18240;DHT22;9244;50.828;4.718;2023-08-21T05:23:55;16.00;99.90
18240;DHT22;9244;50.828;4.718;2023-08-21T05:26:20;16.20;99.90
18240;DHT22;9244;50.828;4.718;2023-08-21T05:28:46;16.30;99.90
18240;DHT22;9244;50.828;4.718;2023-08-21T05:31:12;16.20;99.90
18240;DHT22;9244;50.828;4.718;2023-08-21T05:33:37;16.20;99.90
18240;DHT22;9244;50.828;4.718;2023-08-21T05:36:04;16.20;99.90
18240;DHT22;9244;50.828;4.718;2023-08-21T05:38:30;16.30;99.90
18240;DHT22;9244;50.828;4.718;2023-08-21T05:40:56;16.30;99.90
18240;DHT22;9244;50.828;4.718;2023-08-21T05:43:21;16.30;99.90
18240;DHT22;9244;50.828;4.718;2023-08-21T05:45:47;16.30;99.90
18240;DHT22;9244;50.828;4.718;2023-08-21T05:48:13;16.50;99.90
18240;DHT22;9244;50.828;4.718;2023-08-21T05:50:39;16.40;99.90
18240;DHT22;9244;50.828;4.718;2023-08-21T05:53:05;16.40;99.90
18240;DHT22;9244;50.828;4.718;2023-08-21T05:55:31;16.50;99.90
18240;DHT22;9244;50.828;4.718;2023-08-21T05:57:57;16.60;99.90
18240;DHT22;9244;50.828;4.718;2023-08-21T06:00:23;16.80;99.90
18240;DHT22;9244;50.828;4.718;2023-08-21T06:02:48;16.90;99.90
18240;DHT22;9244;50.828;4.718;2023-08-21T06:05:14;16.90;99.90
18240;DHT22;9244;50.828;4.718;2023-08-21T06:07:40;17.00;99.90
18240;DHT22;9244;50.828;4.718;2023-08-21T06:10:09;17.10;99.90
18240;DHT22;9244;50.828;4.718;2023-08-21T06:12:41;17.30;99.90
18240;DHT22;9244;50.828;4.718;2023-08-21T06:15:07;17.40;99.90
18240;DHT22;9244;50.828;4.718;2023-08-21T06:17:37;17.60;99.90
18240;DHT22;9244;50.828;4.718;2023-08-21T06:20:04;17.80;99.90
18240;DHT22;9244;50.828;4.718;2023-08-21T06:22:39;17.80;99.90
18240;DHT22;9244;50.828;4.718;2023-08-21T06:25:05;17.90;99.90
18240;DHT22;9244;50.828;4.718;2023-08-21T06:27:30;18.00;99.90
18240;DHT22;9244;50.828;4.718;2023-08-21T06:29:56;18.20;99.90
18240;DHT22;9244;50.828;4.718;2023-08-21T06:32:22;18.20;99.90
18240;DHT22;9244;50.828;4.718;2023-08-21T06:34:48;18.40;99.90
18240;DHT22;9244;50.828;4.718;2023-08-21T06:37:14;19.00;99.90
18240;DHT22;9244;50.828;4.718;2023-08-21T06:39:39;19.70;99.90
18240;DHT22;9244;50.828;4.718;2023-08-21T06:42:05;20.50;99.90
18240;DHT22;9244;50.828;4.718;2023-08-21T06:44:31;21.50;99.90
18240;DHT22;9244;50.828;4.718;2023-08-21T06:46:56;22.10;99.90
18240;DHT22;9244;50.828;4.718;2023-08-21T06:49:22;22.30;99.90
18240;DHT22;9244;50.828;4.718;2023-08-21T06:51:49;22.50;99.90
18240;DHT22;9244;50.828;4.718;2023-08-21T06:54:14;22.70;99.90
18240;DHT22;9244;50.828;4.718;2023-08-21T06:56:40;23.00;99.90
18240;DHT22;9244;50.828;4.718;2023-08-21T06:59:06;22.70;99.90
18240;DHT22;9244;50.828;4.718;2023-08-21T07:01:31;22.40;99.90
18240;DHT22;9244;50.828;4.718;2023-08-21T07:03:57;22.30;99.90
18240;DHT22;9244;50.828;4.718;2023-08-21T07:06:22;22.80;99.90
18240;DHT22;9244;50.828;4.718;2023-08-21T07:08:48;23.50;99.90
18240;DHT22;9244;50.828;4.718;2023-08-21T07:11:14;22.90;99.90
18240;DHT22;9244;50.828;4.718;2023-08-21T07:13:39;23.30;99.90
18240;DHT22;9244;50.828;4.718;2023-08-21T07:16:05;24.60;99.90
18240;DHT22;9244;50.828;4.718;2023-08-21T07:18:35;24.70;99.90
18240;DHT22;9244;50.828;4.718;2023-08-21T07:21:01;25.20;99.90
18240;DHT22;9244;50.828;4.718;2023-08-21T07:23:29;25.10;99.90
18240;DHT22;9244;50.828;4.718;2023-08-21T07:25:55;25.30;99.90
18240;DHT22;9244;50.828;4.718;2023-08-21T07:28:21;24.60;99.90
18240;DHT22;9244;50.828;4.718;2023-08-21T07:30:47;25.20;99.90
18240;DHT22;9244;50.828;4.718;2023-08-21T07:33:12;25.50;99.90
18240;DHT22;9244;50.828;4.718;2023-08-21T07:35:38;26.10;99.90
18240;DHT22;9244;50.828;4.718;2023-08-21T07:38:03;26.10;99.90
18240;DHT22;9244;50.828;4.718;2023-08-21T07:40:29;26.10;99.90
18240;DHT22;9244;50.828;4.718;2023-08-21T07:42:55;27.00;99.90
18240;DHT22;9244;50.828;4.718;2023-08-21T07:45:21;26.10;99.90
18240;DHT22;9244;50.828;4.718;2023-08-21T07:47:46;26.30;99.90
18240;DHT22;9244;50.828;4.718;2023-08-21T07:50:12;26.20;99.90
18240;DHT22;9244;50.828;4.718;2023-08-21T07:52:40;26.50;99.90
18240;DHT22;9244;50.828;4.718;2023-08-21T07:55:06;26.30;99.90
18240;DHT22;9244;50.828;4.718;2023-08-21T07:57:32;26.30;99.90
18240;DHT22;9244;50.828;4.718;2023-08-21T07:59:58;26.30;99.90
18240;DHT22;9244;50.828;4.718;2023-08-21T08:02:23;26.70;99.90
18240;DHT22;9244;50.828;4.718;2023-08-21T08:04:49;26.20;99.90
18240;DHT22;9244;50.828;4.718;2023-08-21T08:07:15;26.30;99.90
18240;DHT22;9244;50.828;4.718;2023-08-21T08:09:40;26.10;99.90
18240;DHT22;9244;50.828;4.718;2023-08-21T08:12:06;26.20;99.90
18240;DHT22;9244;50.828;4.718;2023-08-21T08:14:32;26.10;99.90
18240;DHT22;9244;50.828;4.718;2023-08-21T08:16:58;26.50;99.90
18240;DHT22;9244;50.828;4.718;2023-08-21T08:19:23;26.80;99.90
18240;DHT22;9244;50.828;4.718;2023-08-21T08:21:49;26.00;99.90
18240;DHT22;9244;50.828;4.718;2023-08-21T08:24:15;26.10;99.90
18240;DHT22;9244;50.828;4.718;2023-08-21T08:26:40;26.50;99.90
18240;DHT22;9244;50.828;4.718;2023-08-21T08:29:08;26.50;99.90
18240;DHT22;9244;50.828;4.718;2023-08-21T08:31:34;26.50;99.90
18240;DHT22;9244;50.828;4.718;2023-08-21T08:33:59;27.10;99.90
18240;DHT22;9244;50.828;4.718;2023-08-21T08:36:25;26.70;99.90
18240;DHT22;9244;50.828;4.718;2023-08-21T08:38:51;26.00;99.90
18240;DHT22;9244;50.828;4.718;2023-08-21T08:41:27;26.60;99.90
18240;DHT22;9244;50.828;4.718;2023-08-21T08:43:57;26.70;99.90
18240;DHT22;9244;50.828;4.718;2023-08-21T08:46:24;27.20;99.90
18240;DHT22;9244;50.828;4.718;2023-08-21T08:48:53;27.40;99.90
18240;DHT22;9244;50.828;4.718;2023-08-21T08:51:19;26.50;99.90
18240;DHT22;9244;50.828;4.718;2023-08-21T08:53:45;26.10;99.90
18240;DHT22;9244;50.828;4.718;2023-08-21T08:56:10;26.50;99.90
18240;DHT22;9244;50.828;4.718;2023-08-21T08:58:36;26.60;99.90
18240;DHT22;9244;50.828;4.718;2023-08-21T09:01:02;26.60;99.90
18240;DHT22;9244;50.828;4.718;2023-08-21T09:03:29;27.10;99.90
18240;DHT22;9244;50.828;4.718;2023-08-21T09:05:55;26.60;99.90
18240;DHT22;9244;50.828;4.718;2023-08-21T09:08:21;27.20;99.90
18240;DHT22;9244;50.828;4.718;2023-08-21T09:10:46;26.80;99.90
18240;DHT22;9244;50.828;4.718;2023-08-21T09:13:19;27.30;99.90
18240;DHT22;9244;50.828;4.718;2023-08-21T09:15:52;27.60;99.90
18240;DHT22;9244;50.828;4.718;2023-08-21T09:18:18;27.40;99.90
18240;DHT22;9244;50.828;4.718;2023-08-21T09:20:44;27.20;99.90
18240;DHT22;9244;50.828;4.718;2023-08-21T09:23:14;27.40;99.90
18240;DHT22;9244;50.828;4.718;2023-08-21T09:25:40;27.70;99.90
18240;DHT22;9244;50.828;4.718;2023-08-21T09:28:08;28.00;99.90
18240;DHT22;9244;50.828;4.718;2023-08-21T09:30:48;28.30;99.90
18240;DHT22;9244;50.828;4.718;2023-08-21T09:33:17;28.00;99.90
18240;DHT22;9244;50.828;4.718;2023-08-21T09:35:44;28.10;99.90
18240;DHT22;9244;50.828;4.718;2023-08-21T09:38:10;28.10;99.90
18240;DHT22;9244;50.828;4.718;2023-08-21T09:40:40;27.60;99.90
18240;DHT22;9244;50.828;4.718;2023-08-21T09:43:08;27.80;99.90
18240;DHT22;9244;50.828;4.718;2023-08-21T09:45:34;27.90;99.90
18240;DHT22;9244;50.828;4.718;2023-08-21T09:48:00;28.00;99.90
18240;DHT22;9244;50.828;4.718;2023-08-21T09:50:29;27.50;99.90
18240;DHT22;9244;50.828;4.718;2023-08-21T09:52:54;27.50;99.90
18240;DHT22;9244;50.828;4.718;2023-08-21T09:55:21;27.40;99.90
18240;DHT22;9244;50.828;4.718;2023-08-21T09:57:48;27.50;99.90
18240;DHT22;9244;50.828;4.718;2023-08-21T10:00:22;28.00;99.90
18240;DHT22;9244;50.828;4.718;2023-08-21T10:02:50;27.90;99.90
18240;DHT22;9244;50.828;4.718;2023-08-21T10:05:17;28.70;99.90
18240;DHT22;9244;50.828;4.718;2023-08-21T10:07:44;29.10;99.90
18240;DHT22;9244;50.828;4.718;2023-08-21T10:10:13;29.00;99.90
18240;DHT22;9244;50.828;4.718;2023-08-21T10:12:39;28.50;99.90
18240;DHT22;9244;50.828;4.718;2023-08-21T10:15:07;28.70;99.90
18240;DHT22;9244;50.828;4.718;2023-08-21T10:17:35;28.90;99.90
18240;DHT22;9244;50.828;4.718;2023-08-21T10:20:05;29.10;99.90
18240;DHT22;9244;50.828;4.718;2023-08-21T10:22:48;28.40;99.90
18240;DHT22;9244;50.828;4.718;2023-08-21T10:25:16;28.80;99.90
18240;DHT22;9244;50.828;4.718;2023-08-21T10:27:56;28.30;99.90
18240;DHT22;9244;50.828;4.718;2023-08-21T10:30:27;28.80;99.90
18240;DHT22;9244;50.828;4.718;2023-08-21T10:32:55;28.00;99.90
18240;DHT22;9244;50.828;4.718;2023-08-21T10:35:23;27.50;99.90
18240;DHT22;9244;50.828;4.718;2023-08-21T10:38:11;28.40;99.90
18240;DHT22;9244;50.828;4.718;2023-08-21T10:40:39;29.00;99.90
18240;DHT22;9244;50.828;4.718;2023-08-21T10:43:46;28.90;99.90
18240;DHT22;9244;50.828;4.718;2023-08-21T10:46:12;28.60;99.90
18240;DHT22;9244;50.828;4.718;2023-08-21T10:48:38;28.60;99.90
18240;DHT22;9244;50.828;4.718;2023-08-21T10:51:06;28.90;99.90
18240;DHT22;9244;50.828;4.718;2023-08-21T10:53:33;29.20;99.90
18240;DHT22;9244;50.828;4.718;2023-08-21T10:56:05;29.80;99.90
18240;DHT22;9244;50.828;4.718;2023-08-21T10:58:40;29.80;99.90
18240;DHT22;9244;50.828;4.718;2023-08-21T11:01:06;30.20;99.90
18240;DHT22;9244;50.828;4.718;2023-08-21T11:03:32;30.30;99.90
18240;DHT22;9244;50.828;4.718;2023-08-21T11:06:04;30.50;99.90
18240;DHT22;9244;50.828;4.718;2023-08-21T11:08:32;30.60;99.90
18240;DHT22;9244;50.828;4.718;2023-08-21T11:10:58;30.40;99.90
18240;DHT22;9244;50.828;4.718;2023-08-21T11:13:24;29.30;99.90
18240;DHT22;9244;50.828;4.718;2023-08-21T11:15:58;30.20;99.90
18240;DHT22;9244;50.828;4.718;2023-08-21T11:18:30;30.70;99.90
18240;DHT22;9244;50.828;4.718;2023-08-21T11:21:06;31.10;99.90
18240;DHT22;9244;50.828;4.718;2023-08-21T11:23:34;31.10;99.90
18240;DHT22;9244;50.828;4.718;2023-08-21T11:26:01;31.10;99.90
18240;DHT22;9244;50.828;4.718;2023-08-21T11:28:29;31.10;99.90
18240;DHT22;9244;50.828;4.718;2023-08-21T11:30:56;31.10;99.90
18240;DHT22;9244;50.828;4.718;2023-08-21T11:33:22;30.60;99.90
18240;DHT22;9244;50.828;4.718;2023-08-21T11:35:48;31.00;99.90
18240;DHT22;9244;50.828;4.718;2023-08-21T11:38:22;31.10;99.90
18240;DHT22;9244;50.828;4.718;2023-08-21T11:40:55;31.50;99.90
18240;DHT22;9244;50.828;4.718;2023-08-21T11:43:22;31.70;99.90
18240;DHT22;9244;50.828;4.718;2023-08-21T11:45:48;31.30;99.90
18240;DHT22;9244;50.828;4.718;2023-08-21T11:48:14;31.50;99.90
18240;DHT22;9244;50.828;4.718;2023-08-21T11:50:40;31.80;99.90
18240;DHT22;9244;50.828;4.718;2023-08-21T11:53:05;31.00;99.90
18240;DHT22;9244;50.828;4.718;2023-08-21T11:55:31;31.20;99.90
18240;DHT22;9244;50.828;4.718;2023-08-21T11:57:57;31.60;99.90
18240;DHT22;9244;50.828;4.718;2023-08-21T12:00:29;32.00;99.90
18240;DHT22;9244;50.828;4.718;2023-08-21T12:02:57;31.80;99.90
18240;DHT22;9244;50.828;4.718;2023-08-21T12:05:23;32.00;99.90
18240;DHT22;9244;50.828;4.718;2023-08-21T12:07:48;31.80;99.10
18240;DHT22;9244;50.828;4.718;2023-08-21T12:10:14;32.30;99.90
18240;DHT22;9244;50.828;4.718;2023-08-21T12:12:46;32.20;99.90
18240;DHT22;9244;50.828;4.718;2023-08-21T12:15:12;32.30;99.90
18240;DHT22;9244;50.828;4.718;2023-08-21T12:17:38;31.60;99.90
18240;DHT22;9244;50.828;4.718;2023-08-21T12:20:04;31.70;99.90
18240;DHT22;9244;50.828;4.718;2023-08-21T12:22:36;31.70;99.90
18240;DHT22;9244;50.828;4.718;2023-08-21T12:25:02;31.30;99.90
18240;DHT22;9244;50.828;4.718;2023-08-21T12:27:29;30.50;99.90
18240;DHT22;9244;50.828;4.718;2023-08-21T12:29:55;30.40;99.90
18240;DHT22;9244;50.828;4.718;2023-08-21T12:32:20;29.10;99.90
18240;DHT22;9244;50.828;4.718;2023-08-21T12:34:46;28.80;99.90
18240;DHT22;9244;50.828;4.718;2023-08-21T12:37:11;29.60;99.90
18240;DHT22;9244;50.828;4.718;2023-08-21T12:39:37;30.50;99.90
18240;DHT22;9244;50.828;4.718;2023-08-21T12:42:03;31.30;99.90
18240;DHT22;9244;50.828;4.718;2023-08-21T12:44:29;31.70;98.90
18240;DHT22;9244;50.828;4.718;2023-08-21T12:46:55;31.00;99.40
18240;DHT22;9244;50.828;4.718;2023-08-21T12:49:21;30.30;99.90
18240;DHT22;9244;50.828;4.718;2023-08-21T12:51:46;30.90;99.90
18240;DHT22;9244;50.828;4.718;2023-08-21T12:54:12;30.50;99.90
18240;DHT22;9244;50.828;4.718;2023-08-21T12:56:37;30.70;99.90
18240;DHT22;9244;50.828;4.718;2023-08-21T12:59:12;30.40;99.90
18240;DHT22;9244;50.828;4.718;2023-08-21T13:01:38;30.40;99.90
18240;DHT22;9244;50.828;4.718;2023-08-21T13:04:03;31.00;99.90
18240;DHT22;9244;50.828;4.718;2023-08-21T13:06:29;31.00;99.90
18240;DHT22;9244;50.828;4.718;2023-08-21T13:08:55;29.60;99.90
18240;DHT22;9244;50.828;4.718;2023-08-21T13:11:20;29.20;99.90
18240;DHT22;9244;50.828;4.718;2023-08-21T13:13:46;29.70;99.90
18240;DHT22;9244;50.828;4.718;2023-08-21T13:16:12;30.00;99.90
18240;DHT22;9244;50.828;4.718;2023-08-21T13:18:38;30.70;99.90
18240;DHT22;9244;50.828;4.718;2023-08-21T13:21:03;31.40;99.90
18240;DHT22;9244;50.828;4.718;2023-08-21T13:23:29;31.50;99.90
18240;DHT22;9244;50.828;4.718;2023-08-21T13:25:56;31.30;99.90
18240;DHT22;9244;50.828;4.718;2023-08-21T13:28:23;30.10;99.90
18240;DHT22;9244;50.828;4.718;2023-08-21T13:30:49;31.00;99.90
18240;DHT22;9244;50.828;4.718;2023-08-21T13:33:14;31.00;99.90
18240;DHT22;9244;50.828;4.718;2023-08-21T13:35:41;30.40;99.90
18240;DHT22;9244;50.828;4.718;2023-08-21T13:38:06;30.30;99.80
18240;DHT22;9244;50.828;4.718;2023-08-21T13:40:33;29.70;99.90
18240;DHT22;9244;50.828;4.718;2023-08-21T13:42:59;29.20;99.90
18240;DHT22;9244;50.828;4.718;2023-08-21T13:45:25;30.00;99.90
18240;DHT22;9244;50.828;4.718;2023-08-21T13:47:51;30.50;99.40
18240;DHT22;9244;50.828;4.718;2023-08-21T13:50:18;31.00;99.90
18240;DHT22;9244;50.828;4.718;2023-08-21T13:52:47;30.50;99.90
18240;DHT22;9244;50.828;4.718;2023-08-21T13:55:14;30.90;99.90
18240;DHT22;9244;50.828;4.718;2023-08-21T13:57:40;30.80;99.90
18240;DHT22;9244;50.828;4.718;2023-08-21T14:00:07;31.20;99.90
18240;DHT22;9244;50.828;4.718;2023-08-21T14:02:37;31.40;99.90
18240;DHT22;9244;50.828;4.718;2023-08-21T14:05:04;31.10;99.40
18240;DHT22;9244;50.828;4.718;2023-08-21T14:07:30;30.90;99.90
18240;DHT22;9244;50.828;4.718;2023-08-21T14:09:56;30.80;99.30
18240;DHT22;9244;50.828;4.718;2023-08-21T14:12:22;31.00;99.50
18240;DHT22;9244;50.828;4.718;2023-08-21T14:14:48;30.70;99.60
18240;DHT22;9244;50.828;4.718;2023-08-21T14:17:13;30.90;98.90
18240;DHT22;9244;50.828;4.718;2023-08-21T14:19:40;30.90;99.50
18240;DHT22;9244;50.828;4.718;2023-08-21T14:22:05;30.40;99.40
18240;DHT22;9244;50.828;4.718;2023-08-21T14:24:31;30.40;99.90
18240;DHT22;9244;50.828;4.718;2023-08-21T14:26:57;29.80;99.90
18240;DHT22;9244;50.828;4.718;2023-08-21T14:29:22;29.90;99.90
18240;DHT22;9244;50.828;4.718;2023-08-21T14:31:48;29.60;99.90
18240;DHT22;9244;50.828;4.718;2023-08-21T14:34:14;29.90;99.90
18240;DHT22;9244;50.828;4.718;2023-08-21T14:36:41;29.50;99.90
18240;DHT22;9244;50.828;4.718;2023-08-21T14:39:08;29.30;99.90
18240;DHT22;9244;50.828;4.718;2023-08-21T14:41:37;29.40;99.90
18240;DHT22;9244;50.828;4.718;2023-08-21T14:44:02;29.40;99.90
18240;DHT22;9244;50.828;4.718;2023-08-21T14:46:28;28.40;99.90
18240;DHT22;9244;50.828;4.718;2023-08-21T14:48:54;27.40;99.90
18240;DHT22;9244;50.828;4.718;2023-08-21T14:51:19;26.70;99.90
18240;DHT22;9244;50.828;4.718;2023-08-21T14:53:45;26.00;99.90
18240;DHT22;9244;50.828;4.718;2023-08-21T14:56:10;25.40;99.90
18240;DHT22;9244;50.828;4.718;2023-08-21T14:58:36;25.30;99.90
18240;DHT22;9244;50.828;4.718;2023-08-21T15:01:02;26.20;99.90
18240;DHT22;9244;50.828;4.718;2023-08-21T15:03:28;27.00;99.90
18240;DHT22;9244;50.828;4.718;2023-08-21T15:05:54;27.60;99.90
18240;DHT22;9244;50.828;4.718;2023-08-21T15:08:19;28.00;99.90
18240;DHT22;9244;50.828;4.718;2023-08-21T15:10:45;28.00;99.90
18240;DHT22;9244;50.828;4.718;2023-08-21T15:13:11;28.60;99.90
18240;DHT22;9244;50.828;4.718;2023-08-21T15:15:36;29.00;99.90
18240;DHT22;9244;50.828;4.718;2023-08-21T15:18:02;29.20;99.90
18240;DHT22;9244;50.828;4.718;2023-08-21T15:20:28;29.10;99.90
18240;DHT22;9244;50.828;4.718;2023-08-21T15:22:53;28.80;99.90
18240;DHT22;9244;50.828;4.718;2023-08-21T15:25:19;28.40;99.90
18240;DHT22;9244;50.828;4.718;2023-08-21T15:27:45;27.80;99.90
18240;DHT22;9244;50.828;4.718;2023-08-21T15:30:11;26.80;99.90
18240;DHT22;9244;50.828;4.718;2023-08-21T15:32:37;26.10;99.90
18240;DHT22;9244;50.828;4.718;2023-08-21T15:35:02;26.10;99.90
18240;DHT22;9244;50.828;4.718;2023-08-21T15:37:30;25.90;99.90
18240;DHT22;9244;50.828;4.718;2023-08-21T15:39:55;25.50;99.90
18240;DHT22;9244;50.828;4.718;2023-08-21T15:42:21;25.80;99.90
18240;DHT22;9244;50.828;4.718;2023-08-21T15:44:46;26.70;99.90